Карточка аэропорта UNWW

Внимание!
Информация на этой странице в стадии наполнения.
Если вы не увидели какой-то информации, или заметили неточность - пожалуйста сообщите нам!
Спасибо!
Команда RU-STAFF
Название аэропортаСпиченково
Название аэропорта (англ.)Spichenkovo
Превышение1023 ft. (311.8 m.)
Координаты53°48.714', 86°52.704'
Высота перехода800m
Эшелон переходаFL050
Коды ответчика5270-5277
Зона ОрВДНовосибирск РПИ (UNNT)
Данные METARUNWW 220100Z 16002MPS 4900 2400NE BR FU NSC M28/M31 Q1040 R01/920243 NOSIG RMK QFE753
Проноз погоды (TAF)UNWW 212000Z 2121/2221 17003G08MPS 6000 -SN BKN040 TEMPO 2121/2204 0500 FU FZFG BKN016 BECMG 2204/2207 23003G08MPS TEMPO 2204/2213 BKN016 TEMPO 2216/2221 2000 FU
NOTAMshow/hide NOTAM
AWOS   TABLE

Информация о ВПП

ВПП Длина ВПП (м.) Покрытие Курс ВПП Частота ILS
012679Цементобетон14 
192679Цементобетон194111.1

Диспетчерские позиции

Позывной Наименование органа УВД Частота
UNWW_APPНовокузнецк-Подход118.6
UNWW_TWRНовокузнецк-Старт121.2



Спутниковое изображение